Portada
METAR-TAF:

METAR-TAF

Aeroports :

Air_Force_Base

Plattsburgh, Nova York, Estats Units d'Amèrica

latitud: 44-39N, longitud: 073-28W, altitud: 72 m

Observació

L'informe es va fer fa 42 minuts, a les 19:53 UTC
Vent 7 kt del Nord-Est
Temperatura 21°C
Humitat 49%
Pressió 1010 hPa
Visibilitat: 16.1 km
Cel clar

METAR: KPBG 161953Z AUTO 04007KT 10SM CLR 21/10 A2983 RMK AO2 SLP103 T02060100

Hora: 16:35 (20:35 UTC)

Pronòstic

L'informe es va fer fa 3 hores i 15 minuts, a les 17:20 UTC
Pronòstic vàlid del 16 a les 18 UTC al 17 a les 18 UTC
Vent 6 kt del Est/Nord-Est
Visibilitat: 10 km
Núvols disperses a una alçada de 15000 ft
A partir de les 16 a les 2100 UTC
Vent 6 kt del Nord/Nord-Est
Visibilitat: 10 km
Núvols disperses a una alçada de 10000 ft
A partir de les 17 a les 0200 UTC
Vent 3 kt amb direcció variable
Visibilitat: 10 km
Núvols disperses a una alçada de 20000 ft

TAF: KPBG 161720Z 1618/1718 06006KT P6SM SCT150 FM162100 02006KT P6SM SCT100 FM170200 VRB03KT P6SM SCT200

Observacions i pronòstics meteorològics de més de 4000 aeroports (METAR i TAF).

Les estacions disponibles són els punts grocs i vermells al mapa.

Posi el ratolí al punt desitjat per veure el nom de l'estació.

Feu clic per veure les observacions i els pronòstics meteorològics.

Per canviar el mapa: feu clic els botons verds amb una creu de color negre per apropar; al botó verd amb un guió per allunyar la imatge; o en les fletxes verdes per a mapes adjacents.


METAR-TAF: